createdAt,value
2017-08-03T00:00:59.591Z,96.00
2017-08-03T00:03:27.101Z,96.00
2017-08-03T00:05:54.653Z,96.30
2017-08-03T00:08:22.181Z,96.20
2017-08-03T00:10:50.116Z,96.00
2017-08-03T00:13:17.631Z,96.10
2017-08-03T00:15:45.174Z,96.30
2017-08-03T00:18:13.102Z,95.50
2017-08-03T00:20:40.627Z,95.50
2017-08-03T00:23:08.195Z,95.80
2017-08-03T00:25:35.713Z,96.10
2017-08-03T00:28:03.814Z,95.70
2017-08-03T00:30:31.335Z,96.20
2017-08-03T00:32:58.862Z,96.20
2017-08-03T00:35:26.370Z,95.70
2017-08-03T00:37:54.294Z,95.70
2017-08-03T00:40:21.798Z,95.70
2017-08-03T00:42:49.317Z,95.70
2017-08-03T00:45:16.855Z,96.10
2017-08-03T00:47:44.414Z,96.30
2017-08-03T00:50:11.963Z,96.20
2017-08-03T00:52:39.493Z,96.30
2017-08-03T00:55:07.027Z,96.50
2017-08-03T00:57:35.858Z,96.50
2017-08-03T01:00:03.468Z,96.60
2017-08-03T01:02:30.982Z,96.50
2017-08-03T01:04:58.506Z,96.40
2017-08-03T01:07:26.044Z,96.50
2017-08-03T01:09:53.976Z,96.10
2017-08-03T01:12:21.522Z,96.10
2017-08-03T01:14:49.066Z,96.20
2017-08-03T01:17:16.615Z,96.10
2017-08-03T01:19:44.137Z,96.20
2017-08-03T01:22:11.676Z,96.10
2017-08-03T01:24:39.224Z,96.20
2017-08-03T01:27:06.741Z,96.30
2017-08-03T01:29:35.620Z,96.20
2017-08-03T01:32:04.290Z,95.90
2017-08-03T01:34:31.850Z,95.90
2017-08-03T01:36:59.759Z,95.90
2017-08-03T01:39:27.294Z,95.90
2017-08-03T01:41:55.241Z,95.90
2017-08-03T01:44:23.166Z,95.70
2017-08-03T01:46:50.711Z,95.70
2017-08-03T01:49:18.224Z,96.00
2017-08-03T01:51:45.785Z,95.80
2017-08-03T01:54:13.292Z,96.00
2017-08-03T01:56:40.834Z,95.90
2017-08-03T01:59:08.346Z,95.90
2017-08-03T02:01:35.922Z,96.10
2017-08-03T02:04:03.438Z,96.10
2017-08-03T02:06:30.951Z,96.00
2017-08-03T02:08:58.499Z,95.90
2017-08-03T02:11:26.026Z,95.60
2017-08-03T02:13:53.578Z,95.80
2017-08-03T02:16:21.098Z,95.90
2017-08-03T02:18:48.637Z,95.90
2017-08-03T02:21:16.552Z,95.90
2017-08-03T02:23:44.078Z,95.90
2017-08-03T02:26:11.598Z,96.10
2017-08-03T02:28:39.126Z,95.90
2017-08-03T02:31:06.643Z,95.60
2017-08-03T02:33:35.433Z,95.70
2017-08-03T02:36:03.488Z,95.60
2017-08-03T02:38:31.002Z,95.40
2017-08-03T02:40:58.561Z,95.60
2017-08-03T02:43:26.076Z,95.20
2017-08-03T02:45:53.602Z,95.20
2017-08-03T02:48:21.119Z,95.60
2017-08-03T02:50:48.688Z,95.60
2017-08-03T02:53:16.209Z,95.40
2017-08-03T02:55:43.734Z,95.70
2017-08-03T02:58:11.259Z,95.90
2017-08-03T03:00:38.780Z,96.00
2017-08-03T03:03:06.323Z,95.60
2017-08-03T03:05:35.328Z,95.90
2017-08-03T03:08:03.635Z,95.90
2017-08-03T03:10:31.138Z,95.10
2017-08-03T03:12:58.673Z,95.40
2017-08-03T03:15:26.255Z,94.80
2017-08-03T03:17:53.790Z,95.10
2017-08-03T03:20:21.305Z,94.80
2017-08-03T03:22:48.833Z,94.70
2017-08-03T03:25:16.753Z,94.30
2017-08-03T03:27:44.266Z,94.30
2017-08-03T03:30:12.192Z,93.90
2017-08-03T03:32:39.717Z,93.90
2017-08-03T03:35:07.248Z,94.50
2017-08-03T03:37:36.069Z,93.90
2017-08-03T03:40:04.853Z,94.00
2017-08-03T03:42:32.370Z,93.60
2017-08-03T03:44:59.928Z,93.60
2017-08-03T03:47:27.471Z,93.50
2017-08-03T03:49:54.991Z,93.50
2017-08-03T03:52:22.531Z,94.00
2017-08-03T03:54:50.045Z,93.80
2017-08-03T03:57:17.583Z,93.50
2017-08-03T03:59:45.097Z,93.40
2017-08-03T04:02:12.655Z,94.00
2017-08-03T04:04:40.178Z,93.50
2017-08-03T04:07:07.721Z,93.60
2017-08-03T04:09:35.231Z,94.10
2017-08-03T04:12:02.755Z,93.80
2017-08-03T04:14:31.235Z,94.10
2017-08-03T04:16:58.750Z,94.60
2017-08-03T04:19:26.289Z,94.10
2017-08-03T04:21:53.811Z,94.70
2017-08-03T04:24:21.339Z,94.60
2017-08-03T04:26:48.849Z,94.70
2017-08-03T04:29:16.399Z,94.80
2017-08-03T04:31:43.922Z,94.70
2017-08-03T04:34:11.459Z,94.60
2017-08-03T04:36:38.981Z,94.80
2017-08-03T04:39:06.893Z,94.60
2017-08-03T04:41:35.283Z,94.60
2017-08-03T04:44:02.815Z,94.60
2017-08-03T04:46:31.217Z,94.70
2017-08-03T04:48:58.726Z,95.00
2017-08-03T04:51:26.261Z,94.70
2017-08-03T04:53:54.179Z,94.60
2017-08-03T04:56:21.714Z,94.60
2017-08-03T04:58:49.232Z,94.50
2017-08-03T05:01:16.750Z,94.20
2017-08-03T05:03:44.280Z,94.80
2017-08-03T05:06:12.181Z,95.20
2017-08-03T05:08:39.700Z,95.20
2017-08-03T05:11:07.230Z,95.20
2017-08-03T05:13:35.367Z,95.10
2017-08-03T05:16:03.650Z,95.30
2017-08-03T05:18:31.222Z,95.30
2017-08-03T05:20:58.741Z,95.30
2017-08-03T05:23:26.256Z,95.10
2017-08-03T05:25:53.795Z,95.40
2017-08-03T05:28:21.317Z,95.50
2017-08-03T05:30:48.888Z,94.60
2017-08-03T05:33:16.419Z,95.00
2017-08-03T05:35:43.974Z,95.00
2017-08-03T05:38:11.508Z,95.00
2017-08-03T05:40:39.058Z,95.30
2017-08-03T05:43:06.611Z,95.30
2017-08-03T05:45:34.215Z,95.10
2017-08-03T05:48:01.742Z,95.20
2017-08-03T05:50:29.257Z,95.50
2017-08-03T05:52:57.087Z,95.70
2017-08-03T05:55:24.626Z,96.10
2017-08-03T05:57:52.164Z,96.10
2017-08-03T06:00:19.708Z,96.20
2017-08-03T06:02:47.321Z,96.50
2017-08-03T06:05:14.862Z,96.70
2017-08-03T06:07:42.385Z,96.70
2017-08-03T06:10:10.006Z,96.70
2017-08-03T06:12:37.522Z,96.80
2017-08-03T06:15:05.670Z,96.80
2017-08-03T06:17:33.597Z,97.10
2017-08-03T06:20:01.143Z,97.30
2017-08-03T06:22:28.703Z,97.30
2017-08-03T06:24:56.673Z,96.80
2017-08-03T06:27:24.218Z,96.80
2017-08-03T06:29:51.740Z,97.00
2017-08-03T06:32:19.394Z,97.20
2017-08-03T06:34:46.922Z,97.30
2017-08-03T06:37:14.467Z,97.40
2017-08-03T06:39:42.035Z,97.50
2017-08-03T06:42:09.596Z,97.70
2017-08-03T06:44:37.167Z,97.50
2017-08-03T06:47:05.400Z,97.60
2017-08-03T06:49:35.164Z,97.20
2017-08-03T06:52:02.743Z,97.00
2017-08-03T06:54:30.269Z,96.80
2017-08-03T06:56:57.799Z,96.40
2017-08-03T06:59:25.751Z,96.00
2017-08-03T07:01:53.348Z,96.00
2017-08-03T07:04:20.903Z,96.20
2017-08-03T07:06:48.429Z,96.10
2017-08-03T07:09:15.971Z,96.10
2017-08-03T07:11:43.516Z,96.30
2017-08-03T07:14:11.130Z,96.30
2017-08-03T07:16:38.734Z,96.40
2017-08-03T07:19:06.256Z,96.30
2017-08-03T07:21:34.512Z,96.30
2017-08-03T07:24:02.086Z,95.90
2017-08-03T07:26:29.647Z,95.70
2017-08-03T07:28:57.208Z,96.00
2017-08-03T07:31:24.764Z,95.00
2017-08-03T07:33:52.347Z,95.00
2017-08-03T07:36:20.918Z,95.40
2017-08-03T07:38:48.433Z,94.60
2017-08-03T07:41:15.998Z,95.00
2017-08-03T07:43:43.501Z,93.50
2017-08-03T07:46:11.076Z,93.80
2017-08-03T07:48:38.590Z,93.60
2017-08-03T07:51:06.126Z,93.30
2017-08-03T07:53:33.694Z,93.30
2017-08-03T07:56:01.251Z,92.50
2017-08-03T07:58:29.183Z,91.10
2017-08-03T08:00:56.703Z,91.10
2017-08-03T08:03:24.237Z,90.60
2017-08-03T08:05:52.164Z,90.20
2017-08-03T08:08:19.703Z,90.20
2017-08-03T08:10:47.233Z,91.10
2017-08-03T08:13:14.745Z,90.80
2017-08-03T08:15:42.294Z,92.20
2017-08-03T08:18:09.810Z,92.00
2017-08-03T08:20:37.363Z,92.90
2017-08-03T08:23:06.123Z,92.60
2017-08-03T08:25:33.653Z,93.30
2017-08-03T08:28:01.167Z,93.60
2017-08-03T08:30:28.720Z,93.40
2017-08-03T08:32:56.625Z,94.40
2017-08-03T08:35:24.187Z,94.40
2017-08-03T08:37:51.711Z,94.20
2017-08-03T08:40:19.267Z,93.50
2017-08-03T08:42:46.854Z,92.70
2017-08-03T08:45:14.472Z,93.10
2017-08-03T08:47:42.033Z,92.90
2017-08-03T08:50:09.938Z,92.50
2017-08-03T08:52:37.467Z,92.30
2017-08-03T08:55:06.211Z,93.10
2017-08-03T08:57:34.442Z,92.30
2017-08-03T09:00:01.956Z,92.40
2017-08-03T09:02:29.885Z,93.10
2017-08-03T09:04:57.433Z,93.10
2017-08-03T09:07:24.956Z,93.10
2017-08-03T09:09:52.502Z,93.70
2017-08-03T09:12:20.011Z,93.00
2017-08-03T09:14:47.538Z,92.60
2017-08-03T09:17:15.063Z,92.70
2017-08-03T09:19:42.603Z,92.50
2017-08-03T09:22:10.112Z,93.00
2017-08-03T09:24:38.085Z,92.40
2017-08-03T09:27:05.647Z,92.40
2017-08-03T09:29:33.656Z,92.90
2017-08-03T09:32:01.200Z,92.30
2017-08-03T09:34:28.730Z,92.40
2017-08-03T09:36:56.278Z,93.60
2017-08-03T09:39:23.789Z,93.70
2017-08-03T09:41:51.328Z,94.00
2017-08-03T09:44:18.850Z,94.40
2017-08-03T09:46:46.416Z,95.10
2017-08-03T09:49:13.945Z,96.00
2017-08-03T09:51:41.483Z,95.60
2017-08-03T09:54:11.594Z,95.10
2017-08-03T09:56:39.109Z,95.20
2017-08-03T09:59:07.050Z,93.50
2017-08-03T10:01:35.790Z,93.50
2017-08-03T10:04:03.759Z,91.60
2017-08-03T10:06:31.854Z,92.30
2017-08-03T10:08:59.407Z,90.80
2017-08-03T10:11:27.338Z,89.80
2017-08-03T10:13:54.869Z,89.30
2017-08-03T10:16:22.810Z,88.10
2017-08-03T10:18:50.337Z,88.10
2017-08-03T10:21:19.380Z,88.70
2017-08-03T10:23:47.051Z,89.50
2017-08-03T10:26:15.345Z,84.80
2017-08-03T10:28:42.899Z,84.80
2017-08-03T10:31:10.450Z,85.70
2017-08-03T10:33:38.858Z,84.60
2017-08-03T10:36:06.431Z,84.60
2017-08-03T10:38:34.869Z,85.20
2017-08-03T10:41:02.796Z,84.90
2017-08-03T10:43:30.314Z,84.90
2017-08-03T10:45:57.892Z,84.40
2017-08-03T10:48:25.585Z,79.00
2017-08-03T10:50:53.093Z,79.90
2017-08-03T10:53:21.900Z,78.20
2017-08-03T10:55:50.218Z,75.80
2017-08-03T10:58:18.179Z,76.60
2017-08-03T11:00:45.753Z,76.60
2017-08-03T11:03:13.695Z,76.50
2017-08-03T11:05:41.221Z,76.50
2017-08-03T11:08:08.851Z,76.10
2017-08-03T11:10:36.765Z,79.10
2017-08-03T11:13:04.293Z,79.10
2017-08-03T11:15:31.838Z,79.50
2017-08-03T11:17:59.365Z,79.70
2017-08-03T11:20:26.895Z,81.30
2017-08-03T11:22:54.425Z,81.30
2017-08-03T11:25:23.646Z,84.70
2017-08-03T11:27:51.214Z,84.90
2017-08-03T11:30:18.783Z,86.30
2017-08-03T11:32:46.294Z,82.50
2017-08-03T11:35:13.824Z,81.00
2017-08-03T11:37:41.746Z,78.90
2017-08-03T11:40:09.310Z,78.90
2017-08-03T11:42:36.819Z,78.50
2017-08-03T11:45:04.346Z,77.50
2017-08-03T11:47:31.887Z,78.50
2017-08-03T11:49:59.388Z,77.90
2017-08-03T11:52:26.934Z,77.80
2017-08-03T11:54:54.494Z,77.40
2017-08-03T11:57:22.442Z,76.40
2017-08-03T11:59:49.952Z,76.40
2017-08-03T12:02:17.500Z,77.30
2017-08-03T12:04:45.026Z,77.20
2017-08-03T12:07:12.975Z,78.00
2017-08-03T12:09:40.612Z,78.00
2017-08-03T12:12:08.136Z,78.50
2017-08-03T12:14:36.057Z,77.60
2017-08-03T12:17:04.488Z,77.60
2017-08-03T12:19:32.011Z,77.00
2017-08-03T12:21:59.940Z,78.00
2017-08-03T12:24:27.482Z,78.00
2017-08-03T12:26:54.990Z,79.10
2017-08-03T12:29:22.535Z,81.60
2017-08-03T12:31:50.034Z,81.00
2017-08-03T12:34:17.633Z,79.20
2017-08-03T12:36:45.149Z,77.70
2017-08-03T12:39:13.056Z,77.10
2017-08-03T12:41:40.587Z,77.10
2017-08-03T12:44:08.104Z,78.10
2017-08-03T12:46:35.635Z,76.90
2017-08-03T12:49:03.804Z,77.80
2017-08-03T12:51:31.343Z,78.00
2017-08-03T12:53:58.892Z,78.10
2017-08-03T12:56:26.454Z,78.70
2017-08-03T12:58:53.990Z,78.50
2017-08-03T13:01:21.943Z,79.10
2017-08-03T13:03:49.863Z,79.40
2017-08-03T13:06:17.386Z,79.40
2017-08-03T13:08:45.312Z,79.90
2017-08-03T13:11:12.814Z,79.90
2017-08-03T13:13:40.750Z,78.40
2017-08-03T13:16:08.301Z,78.30
2017-08-03T13:18:35.833Z,78.20
2017-08-03T13:21:03.912Z,75.90
2017-08-03T13:23:31.487Z,74.90
2017-08-03T13:25:58.994Z,73.90
2017-08-03T13:28:26.558Z,74.50
2017-08-03T13:30:54.060Z,71.90
2017-08-03T13:33:21.561Z,70.30
2017-08-03T13:35:49.163Z,69.90
2017-08-03T13:38:16.697Z,72.00
2017-08-03T13:40:44.238Z,71.40
2017-08-03T13:43:12.272Z,69.30
2017-08-03T13:45:39.798Z,69.30
2017-08-03T13:48:07.382Z,70.10
2017-08-03T13:50:36.188Z,68.40
2017-08-03T13:53:04.581Z,69.70
2017-08-03T13:55:32.523Z,67.40
2017-08-03T13:58:00.040Z,67.40
2017-08-03T14:00:27.648Z,64.10
2017-08-03T14:02:55.688Z,64.00
2017-08-03T14:05:23.197Z,64.00
2017-08-03T14:07:50.851Z,63.50
2017-08-03T14:10:18.752Z,62.30
2017-08-03T14:12:46.318Z,62.30
2017-08-03T14:15:13.836Z,63.70
2017-08-03T14:17:41.429Z,64.70
2017-08-03T14:20:08.973Z,63.90
2017-08-03T14:22:36.505Z,64.50
2017-08-03T14:25:04.430Z,64.90
2017-08-03T14:27:31.938Z,64.90
2017-08-03T14:29:59.463Z,63.80
2017-08-03T14:32:27.047Z,63.00
2017-08-03T14:34:54.970Z,64.10
2017-08-03T14:37:22.485Z,64.10
2017-08-03T14:39:50.438Z,63.30
2017-08-03T14:42:18.339Z,63.30
2017-08-03T14:44:45.863Z,63.30
2017-08-03T14:47:13.432Z,64.10
2017-08-03T14:49:41.395Z,63.30
2017-08-03T14:52:09.313Z,64.00
2017-08-03T14:54:36.929Z,64.00
2017-08-03T14:57:04.941Z,64.90
2017-08-03T14:59:32.459Z,64.90
2017-08-03T15:02:00.025Z,63.60
2017-08-03T15:04:27.527Z,64.40
2017-08-03T15:06:55.093Z,64.10
2017-08-03T15:09:22.635Z,64.30
2017-08-03T15:11:50.191Z,64.80
2017-08-03T15:14:17.832Z,64.80
2017-08-03T15:16:45.354Z,64.40
2017-08-03T15:19:13.279Z,63.80
2017-08-03T15:21:40.819Z,63.80
2017-08-03T15:24:08.370Z,64.10
2017-08-03T15:26:35.877Z,64.10
2017-08-03T15:29:03.399Z,65.00
2017-08-03T15:31:30.955Z,64.10
2017-08-03T15:33:58.455Z,65.30
2017-08-03T15:38:59.469Z,64.50
2017-08-03T15:41:27.000Z,64.40
2017-08-03T15:43:54.521Z,65.00
2017-08-03T15:46:22.084Z,64.10
2017-08-03T15:48:49.689Z,64.90
2017-08-03T15:51:17.194Z,64.30
2017-08-03T15:53:44.730Z,64.90
2017-08-03T15:56:12.253Z,65.30
2017-08-03T15:58:39.789Z,65.80
2017-08-03T16:01:07.320Z,66.20
2017-08-03T16:03:34.879Z,65.80
2017-08-03T16:06:02.382Z,67.00
2017-08-03T16:08:29.921Z,66.80
2017-08-03T16:10:57.817Z,66.90
2017-08-03T16:13:25.373Z,66.90
2017-08-03T16:15:52.897Z,66.30
2017-08-03T16:18:20.399Z,65.80
2017-08-03T16:20:47.944Z,65.80
2017-08-03T16:23:15.479Z,66.10
2017-08-03T16:25:43.406Z,65.00
2017-08-03T16:28:10.926Z,65.00
2017-08-03T16:30:38.737Z,65.20
2017-08-03T16:33:06.314Z,65.00
2017-08-03T16:35:34.304Z,66.60
2017-08-03T16:38:02.213Z,64.50
2017-08-03T16:40:29.958Z,64.50
2017-08-03T16:42:57.495Z,64.30
2017-08-03T16:45:25.513Z,64.40
2017-08-03T16:47:53.054Z,64.40
2017-08-03T16:50:20.595Z,65.20
2017-08-03T16:52:48.133Z,65.90
2017-08-03T16:55:16.062Z,64.80
2017-08-03T16:57:43.594Z,64.80
2017-08-03T17:00:11.119Z,64.70
2017-08-03T17:02:38.664Z,64.50
2017-08-03T17:05:06.585Z,63.70
2017-08-03T17:07:34.101Z,63.70
2017-08-03T17:10:01.650Z,63.50
2017-08-03T17:12:29.671Z,63.30
2017-08-03T17:14:57.226Z,63.30
2017-08-03T17:17:24.778Z,63.30
2017-08-03T17:19:52.317Z,62.70
2017-08-03T17:22:19.868Z,62.80
2017-08-03T17:24:47.448Z,63.30
2017-08-03T17:27:15.075Z,62.70
2017-08-03T17:29:43.027Z,62.00
2017-08-03T17:32:10.548Z,62.00
2017-08-03T17:34:38.070Z,62.30
2017-08-03T17:37:06.100Z,61.90
2017-08-03T17:39:33.974Z,61.90
2017-08-03T17:42:01.519Z,61.70
2017-08-03T17:44:29.125Z,61.50
2017-08-03T17:46:57.089Z,61.50
2017-08-03T17:49:25.397Z,62.10
2017-08-03T17:51:52.942Z,62.10
2017-08-03T17:54:20.494Z,61.20
2017-08-03T17:56:48.143Z,60.80
2017-08-03T17:59:16.262Z,61.20
2017-08-03T18:01:43.796Z,61.20
2017-08-03T18:04:11.428Z,62.10
2017-08-03T18:06:38.970Z,61.60
2017-08-03T18:09:06.593Z,61.20
2017-08-03T18:11:34.787Z,62.00
2017-08-03T18:14:02.516Z,61.70
2017-08-03T18:16:30.660Z,62.30
2017-08-03T18:18:58.412Z,62.30
2017-08-03T18:21:25.935Z,61.20
2017-08-03T18:23:53.708Z,61.60
2017-08-03T18:26:21.299Z,61.20
2017-08-03T18:28:48.934Z,61.40
2017-08-03T18:31:16.577Z,61.90
2017-08-03T18:33:44.195Z,61.40
2017-08-03T18:36:11.763Z,61.60
2017-08-03T18:38:39.544Z,61.90
2017-08-03T18:41:07.156Z,61.30
2017-08-03T18:43:36.059Z,61.70
2017-08-03T18:46:04.017Z,61.70
2017-08-03T18:48:31.970Z,62.00
2017-08-03T18:50:59.962Z,61.90
2017-08-03T18:53:27.965Z,61.80
2017-08-03T18:55:55.485Z,61.80
2017-08-03T18:58:23.178Z,61.80
2017-08-03T19:00:50.804Z,61.90
2017-08-03T19:03:18.516Z,62.60
2017-08-03T19:05:46.127Z,62.30
2017-08-03T19:08:13.769Z,62.10
2017-08-03T19:10:41.620Z,62.30
2017-08-03T19:13:09.427Z,62.20
2017-08-03T19:15:37.497Z,62.10
2017-08-03T19:18:06.008Z,62.00
2017-08-03T19:20:34.195Z,62.10
2017-08-03T19:23:01.743Z,62.70
2017-08-03T19:25:29.442Z,62.40
2017-08-03T19:27:57.025Z,62.70
2017-08-03T19:30:24.678Z,63.00
2017-08-03T19:32:52.667Z,63.10
2017-08-03T19:35:20.683Z,63.10
2017-08-03T19:37:48.281Z,63.20
2017-08-03T19:40:27.091Z,63.50
2017-08-03T19:42:55.410Z,63.10
2017-08-03T19:45:22.926Z,63.10
2017-08-03T19:47:50.585Z,63.40
2017-08-03T19:50:18.088Z,63.50
2017-08-03T19:52:45.663Z,63.60
2017-08-03T19:55:13.186Z,63.00
2017-08-03T19:57:41.345Z,64.00
2017-08-03T20:00:09.316Z,63.80
2017-08-03T20:02:36.913Z,63.90
2017-08-03T20:05:05.156Z,64.30
2017-08-03T20:07:52.821Z,64.10
2017-08-03T20:10:22.225Z,64.10
2017-08-03T20:12:49.748Z,64.40
2017-08-03T20:15:17.298Z,64.80
2017-08-03T20:17:45.217Z,64.80
2017-08-03T20:20:12.754Z,64.80
2017-08-03T20:22:40.290Z,64.90
2017-08-03T20:25:08.356Z,65.40
2017-08-03T20:27:36.307Z,65.60
2017-08-03T20:30:04.631Z,65.60
2017-08-03T20:32:32.393Z,65.10
2017-08-03T20:34:59.913Z,65.40
2017-08-03T20:37:27.491Z,65.20
2017-08-03T20:39:55.026Z,66.00
2017-08-03T20:42:22.940Z,67.20
2017-08-03T20:44:50.516Z,67.20
2017-08-03T20:47:18.033Z,67.30
2017-08-03T20:49:45.584Z,67.60
2017-08-03T20:52:13.484Z,66.90
2017-08-03T20:54:41.042Z,66.90
2017-08-03T20:57:08.571Z,67.70
2017-08-03T20:59:36.111Z,67.80
2017-08-03T21:02:04.131Z,68.60
2017-08-03T21:04:31.633Z,69.10
2017-08-03T21:06:59.168Z,69.50
2017-08-03T21:09:26.670Z,69.70
2017-08-03T21:11:54.207Z,70.70
2017-08-03T21:14:21.732Z,71.30
2017-08-03T21:16:49.281Z,70.90
2017-08-03T21:19:16.819Z,71.10
2017-08-03T21:21:44.344Z,71.30
2017-08-03T21:24:12.285Z,72.70
2017-08-03T21:26:39.798Z,72.60
2017-08-03T21:29:07.342Z,72.10
2017-08-03T21:31:35.840Z,72.60
2017-08-03T21:34:04.129Z,72.60
2017-08-03T21:36:31.635Z,72.80
2017-08-03T21:38:59.196Z,73.40
2017-08-03T21:41:27.111Z,73.00
2017-08-03T21:43:54.634Z,73.00
2017-08-03T21:46:22.572Z,74.70
2017-08-03T21:48:50.101Z,74.70
2017-08-03T21:51:17.655Z,75.20
2017-08-03T21:53:45.152Z,75.70
2017-08-03T21:56:12.678Z,75.90
2017-08-03T21:58:40.243Z,76.20
2017-08-03T22:01:18.753Z,77.00
2017-08-03T22:03:46.337Z,77.50
2017-08-03T22:06:14.270Z,78.80
2017-08-03T22:08:41.822Z,78.80
2017-08-03T22:11:09.370Z,78.70
2017-08-03T22:13:36.919Z,78.60
2017-08-03T22:16:05.501Z,78.80
2017-08-03T22:18:33.033Z,78.70
2017-08-03T22:21:00.949Z,79.30
2017-08-03T22:23:28.489Z,79.30
2017-08-03T22:25:56.003Z,78.60
2017-08-03T22:28:23.927Z,78.70
2017-08-03T22:30:51.509Z,78.70
2017-08-03T22:33:19.022Z,76.80
2017-08-03T22:35:46.574Z,76.40
2017-08-03T22:38:14.497Z,75.60
2017-08-03T22:40:42.048Z,75.60
2017-08-03T22:43:09.579Z,76.20
2017-08-03T22:45:37.119Z,76.50
2017-08-03T22:48:04.630Z,75.70
2017-08-03T22:50:32.226Z,74.70
2017-08-03T22:53:00.149Z,74.90
2017-08-03T22:55:27.767Z,74.90
2017-08-03T22:57:55.293Z,73.70
2017-08-03T23:00:22.823Z,75.70
2017-08-03T23:02:50.388Z,76.10
2017-08-03T23:05:17.913Z,76.10
2017-08-03T23:07:45.445Z,77.40
2017-08-03T23:10:13.356Z,78.00
2017-08-03T23:12:40.905Z,78.00
2017-08-03T23:15:08.425Z,77.20
2017-08-03T23:17:36.628Z,76.50
2017-08-03T23:20:04.175Z,77.20
2017-08-03T23:22:31.690Z,78.20
2017-08-03T23:24:59.235Z,78.60
2017-08-03T23:27:26.790Z,78.10
2017-08-03T23:29:54.350Z,78.50
2017-08-03T23:32:21.883Z,78.60
2017-08-03T23:34:49.423Z,79.00
2017-08-03T23:37:16.931Z,79.40
2017-08-03T23:39:47.559Z,79.50
2017-08-03T23:42:15.132Z,79.90
2017-08-03T23:44:43.931Z,78.70
2017-08-03T23:47:11.473Z,78.70
2017-08-03T23:49:39.010Z,78.80
2017-08-03T23:52:06.682Z,78.60
2017-08-03T23:54:35.681Z,78.90
2017-08-03T23:57:03.222Z,79.50
2017-08-03T23:59:30.734Z,79.90
